createdAt,value
2022-09-13T00:00:53.572Z,3.30
2022-09-13T00:02:55.036Z,3.30
2022-09-13T00:04:56.497Z,3.58
2022-09-13T00:06:58.036Z,3.40
2022-09-13T00:09:01.411Z,3.15
2022-09-13T00:11:03.730Z,3.55
2022-09-13T00:13:06.669Z,2.97
2022-09-13T00:15:08.907Z,3.30
2022-09-13T00:17:10.355Z,3.60
2022-09-13T00:19:11.852Z,3.20
2022-09-13T00:21:16.381Z,3.42
2022-09-13T00:23:17.817Z,3.03
2022-09-13T00:25:19.380Z,3.60
2022-09-13T00:27:20.812Z,3.47
2022-09-13T00:29:22.255Z,3.10
2022-09-13T00:31:26.380Z,3.63
2022-09-13T00:33:27.950Z,4.10
2022-09-13T00:35:29.426Z,3.80
2022-09-13T00:37:33.297Z,3.50
2022-09-13T00:39:35.366Z,3.50
2022-09-13T00:41:36.915Z,4.40
2022-09-13T00:43:50.481Z,4.50
2022-09-13T00:45:52.014Z,4.05
2022-09-13T00:47:59.668Z,4.78
2022-09-13T00:50:19.367Z,4.75
2022-09-13T00:52:24.091Z,5.22
2022-09-13T00:54:29.385Z,4.97
2022-09-13T00:56:36.505Z,5.15
2022-09-13T00:58:44.045Z,5.85
2022-09-13T01:00:46.278Z,6.63
2022-09-13T01:02:53.259Z,6.30
2022-09-13T01:04:55.291Z,6.65
2022-09-13T01:07:02.331Z,7.13
2022-09-13T01:09:05.425Z,6.50
2022-09-13T01:11:13.310Z,7.15
2022-09-13T01:13:26.488Z,7.72
2022-09-13T01:15:27.939Z,7.28
2022-09-13T01:17:31.027Z,7.63
2022-09-13T01:19:32.506Z,7.90
2022-09-13T01:22:12.912Z,8.23
2022-09-13T01:24:35.885Z,8.18
2022-09-13T01:27:11.438Z,8.25
2022-09-13T01:29:50.631Z,7.72
2022-09-13T01:32:41.449Z,8.65
2022-09-13T01:35:05.969Z,7.78
2022-09-13T01:37:28.859Z,8.32
2022-09-13T01:39:36.177Z,8.50
2022-09-13T01:41:50.756Z,8.35
2022-09-13T01:44:10.845Z,8.80
2022-09-13T01:46:26.417Z,9.80
2022-09-13T01:48:40.152Z,8.77
2022-09-13T01:50:47.711Z,9.55
2022-09-13T01:52:49.336Z,9.02
2022-09-13T01:55:02.693Z,8.93
2022-09-13T01:57:20.140Z,9.57
2022-09-13T01:59:37.882Z,9.23
2022-09-13T02:02:03.420Z,9.30
2022-09-13T02:04:16.949Z,9.65
2022-09-13T02:06:23.376Z,9.57
2022-09-13T02:08:45.635Z,9.82
2022-09-13T02:10:59.529Z,9.88
2022-09-13T02:13:05.482Z,10.18
2022-09-13T02:15:32.185Z,11.05
2022-09-13T02:17:39.143Z,10.98
2022-09-13T02:19:44.436Z,10.68
2022-09-13T02:21:58.849Z,10.32
2022-09-13T02:24:05.909Z,10.15
2022-09-13T02:26:12.618Z,9.65
2022-09-13T02:28:21.760Z,10.00
2022-09-13T02:30:23.406Z,9.80
2022-09-13T02:32:32.665Z,10.07
2022-09-13T02:34:40.481Z,10.40
2022-09-13T02:36:46.221Z,10.43
2022-09-13T02:39:02.021Z,11.43
2022-09-13T02:41:22.051Z,10.52
2022-09-13T02:43:31.549Z,10.38
2022-09-13T02:46:12.536Z,11.32
2022-09-13T02:48:28.799Z,10.75
2022-09-13T02:51:01.485Z,10.32
2022-09-13T02:53:18.443Z,10.85
2022-09-13T02:55:38.046Z,11.27
2022-09-13T02:57:49.047Z,10.93
2022-09-13T02:59:50.473Z,10.60
2022-09-13T03:02:01.845Z,12.00
2022-09-13T03:04:03.737Z,11.30
2022-09-13T03:06:05.828Z,11.50
2022-09-13T03:08:10.487Z,10.95
2022-09-13T03:10:14.765Z,11.95
2022-09-13T03:12:33.076Z,11.32
2022-09-13T03:14:45.858Z,13.45
2022-09-13T03:17:11.687Z,11.90
2022-09-13T03:19:22.157Z,12.82
2022-09-13T03:21:53.960Z,12.07
2022-09-13T03:24:04.369Z,12.82
2022-09-13T03:26:51.240Z,12.50
2022-09-13T03:29:10.961Z,12.90
2022-09-13T03:31:27.846Z,13.18
2022-09-13T03:33:41.005Z,13.25
2022-09-13T03:35:56.739Z,14.13
2022-09-13T03:38:15.853Z,14.43
2022-09-13T03:40:32.603Z,14.02
2022-09-13T03:42:44.308Z,15.10
2022-09-13T03:44:49.346Z,15.10
2022-09-13T03:46:57.348Z,16.40
2022-09-13T03:49:04.972Z,16.08
2022-09-13T03:51:07.544Z,15.05
2022-09-13T03:53:16.184Z,16.45
2022-09-13T03:57:23.473Z,16.83
2022-09-13T03:59:24.967Z,16.92
2022-09-13T04:01:27.144Z,16.48
2022-09-13T04:03:28.595Z,17.50
2022-09-13T04:05:30.014Z,17.52
2022-09-13T04:07:31.446Z,17.73
2022-09-13T04:09:33.220Z,19.00
2022-09-13T04:11:34.669Z,19.00
2022-09-13T04:13:36.939Z,18.77
2022-09-13T04:15:38.344Z,19.00
2022-09-13T04:17:39.786Z,17.77
2022-09-13T04:19:41.650Z,18.70
2022-09-13T04:21:43.196Z,18.52
2022-09-13T04:23:44.655Z,18.88
2022-09-13T04:25:46.219Z,18.48
2022-09-13T04:27:48.174Z,18.60
2022-09-13T04:29:49.589Z,18.02
2022-09-13T04:31:52.801Z,18.75
2022-09-13T04:33:54.416Z,17.40
2022-09-13T04:35:59.823Z,18.63
2022-09-13T04:38:01.284Z,19.23
2022-09-13T04:40:02.864Z,18.50
2022-09-13T04:42:04.978Z,18.73
2022-09-13T04:44:06.642Z,18.95
2022-09-13T04:46:08.152Z,18.67
2022-09-13T04:48:09.659Z,18.20
2022-09-13T04:50:11.157Z,18.67
2022-09-13T04:52:12.750Z,19.17
2022-09-13T04:54:16.194Z,18.60
2022-09-13T04:56:19.596Z,18.90
2022-09-13T04:58:21.180Z,18.73
2022-09-13T05:00:22.781Z,18.73
2022-09-13T05:02:24.392Z,18.60
2022-09-13T05:04:25.955Z,18.65
2022-09-13T05:06:28.244Z,18.75
2022-09-13T05:08:29.769Z,18.40
2022-09-13T05:10:31.169Z,18.27
2022-09-13T05:12:32.697Z,18.55
2022-09-13T05:14:35.082Z,18.75
2022-09-13T05:16:36.557Z,17.88
2022-09-13T05:18:41.980Z,18.23
2022-09-13T05:20:46.162Z,17.77
2022-09-13T05:22:47.666Z,18.80
2022-09-13T05:24:49.065Z,17.23
2022-09-13T05:26:50.493Z,17.70
2022-09-13T05:28:51.995Z,18.55
2022-09-13T05:31:00.297Z,17.55
2022-09-13T05:33:01.794Z,16.77
2022-09-13T05:35:03.895Z,18.50
2022-09-13T05:37:05.546Z,17.17
2022-09-13T05:41:29.417Z,17.20
2022-09-13T05:43:33.445Z,18.30
2022-09-13T05:45:34.900Z,18.27
2022-09-13T05:47:36.315Z,17.10
2022-09-13T05:49:50.040Z,17.38
2022-09-13T05:51:59.186Z,17.23
2022-09-13T05:54:00.625Z,17.30
2022-09-13T05:56:02.467Z,18.25
2022-09-13T05:58:04.084Z,17.50
2022-09-13T06:00:06.075Z,19.70
2022-09-13T06:02:10.331Z,18.23
2022-09-13T06:04:12.604Z,17.58
2022-09-13T06:06:14.459Z,17.55
2022-09-13T06:08:16.484Z,17.73
2022-09-13T06:10:18.207Z,16.98
2022-09-13T06:12:19.931Z,17.77
2022-09-13T06:14:21.332Z,17.75
2022-09-13T06:16:23.463Z,18.50
2022-09-13T06:18:26.039Z,16.88
2022-09-13T06:20:27.492Z,18.35
2022-09-13T06:22:33.186Z,17.90
2022-09-13T06:24:37.458Z,17.02
2022-09-13T06:26:38.911Z,17.15
2022-09-13T06:28:41.019Z,16.73
2022-09-13T06:30:42.560Z,17.45
2022-09-13T06:32:43.985Z,16.55
2022-09-13T06:34:45.425Z,17.35
2022-09-13T06:36:46.856Z,17.20
2022-09-13T06:38:49.303Z,17.90
2022-09-13T06:40:59.974Z,16.73
2022-09-13T06:43:01.477Z,16.70
2022-09-13T06:45:03.292Z,16.98
2022-09-13T06:47:04.847Z,15.18
2022-09-13T06:49:07.995Z,15.27
2022-09-13T06:51:15.444Z,15.80
2022-09-13T06:53:17.092Z,15.00
2022-09-13T06:55:18.529Z,15.23
2022-09-13T06:57:20.339Z,15.38
2022-09-13T06:59:21.797Z,14.30
2022-09-13T07:01:26.163Z,14.57
2022-09-13T07:03:27.724Z,14.77
2022-09-13T07:05:29.617Z,15.55
2022-09-13T07:07:31.407Z,14.15
2022-09-13T07:09:34.296Z,14.45
2022-09-13T07:11:38.228Z,14.13
2022-09-13T07:13:40.469Z,13.65
2022-09-13T07:15:41.944Z,14.18
2022-09-13T07:17:43.486Z,14.27
2022-09-13T07:19:44.970Z,14.85
2022-09-13T07:21:46.827Z,14.32
2022-09-13T07:23:48.881Z,15.85
2022-09-13T07:26:01.909Z,16.15
2022-09-13T07:28:03.327Z,15.85
2022-09-13T07:30:05.341Z,15.07
2022-09-13T07:32:06.779Z,16.15
2022-09-13T07:34:13.092Z,15.68
2022-09-13T07:36:14.863Z,15.05
2022-09-13T07:38:16.294Z,15.13
2022-09-13T07:40:17.780Z,16.02
2022-09-13T07:42:19.252Z,15.20
2022-09-13T07:44:20.767Z,15.90
2022-09-13T07:46:24.862Z,14.52
2022-09-13T07:48:32.760Z,15.20
2022-09-13T07:50:35.272Z,14.65
2022-09-13T07:52:38.046Z,14.50
2022-09-13T07:54:39.468Z,14.82
2022-09-13T07:56:41.826Z,13.85
2022-09-13T07:58:45.261Z,12.43
2022-09-13T08:00:46.733Z,12.05
2022-09-13T08:02:48.210Z,11.63
2022-09-13T08:04:49.700Z,11.60
2022-09-13T08:06:51.213Z,11.32
2022-09-13T08:08:53.037Z,10.05
2022-09-13T08:10:54.853Z,10.32
2022-09-13T08:12:56.288Z,10.55
2022-09-13T08:14:57.748Z,10.32
2022-09-13T08:16:59.290Z,8.90
2022-09-13T08:19:03.772Z,9.75
2022-09-13T08:21:05.536Z,9.52
2022-09-13T08:23:08.147Z,9.30
2022-09-13T08:25:09.575Z,8.20
2022-09-13T08:27:13.466Z,8.80
2022-09-13T08:29:15.987Z,7.90
2022-09-13T08:31:19.844Z,7.25
2022-09-13T08:33:21.514Z,7.05
2022-09-13T08:35:22.939Z,6.85
2022-09-13T08:37:24.399Z,6.80
2022-09-13T08:39:28.225Z,6.90
2022-09-13T08:41:45.076Z,7.35
2022-09-13T08:43:59.626Z,6.05
2022-09-13T08:46:18.254Z,4.47
2022-09-13T08:48:27.697Z,3.38
2022-09-13T08:50:34.015Z,3.17
2022-09-13T08:53:16.710Z,2.53
2022-09-13T08:55:40.121Z,3.28
2022-09-13T08:57:55.358Z,2.88
2022-09-13T09:00:20.112Z,2.75
2022-09-13T09:03:00.726Z,2.60
2022-09-13T09:05:05.438Z,2.60
2022-09-13T09:07:19.009Z,1.80
2022-09-13T09:09:22.071Z,2.75
2022-09-13T09:11:28.016Z,2.13
2022-09-13T09:13:37.062Z,2.05
2022-09-13T09:15:46.240Z,2.70
2022-09-13T09:18:10.690Z,2.50
2022-09-13T09:20:32.824Z,1.92
2022-09-13T09:22:36.144Z,2.17
2022-09-13T09:24:40.317Z,2.33
2022-09-13T09:26:41.793Z,1.55
2022-09-13T09:28:47.332Z,2.22
2022-09-13T09:31:04.398Z,1.50
2022-09-13T09:33:23.993Z,1.50
2022-09-13T09:35:37.863Z,1.38
2022-09-13T09:37:40.947Z,1.25
2022-09-13T09:39:44.750Z,1.45
2022-09-13T09:41:46.324Z,1.30
2022-09-13T09:44:00.251Z,1.08
2022-09-13T09:46:03.769Z,1.17
2022-09-13T09:48:09.410Z,1.00
2022-09-13T09:50:21.532Z,1.05
2022-09-13T09:52:40.085Z,1.30
2022-09-13T09:54:41.691Z,1.10
2022-09-13T09:56:54.505Z,0.82
2022-09-13T09:58:56.139Z,0.88
2022-09-13T10:00:59.120Z,1.08
2022-09-13T10:03:04.288Z,1.30
2022-09-13T10:05:06.906Z,1.50
2022-09-13T10:07:33.244Z,1.00
2022-09-13T10:09:37.816Z,0.98
2022-09-13T10:11:51.228Z,0.88
2022-09-13T10:14:02.538Z,0.63
2022-09-13T10:16:06.396Z,1.17
2022-09-13T10:18:40.399Z,0.70
2022-09-13T10:20:39.224Z,0.90
2022-09-13T10:22:42.871Z,0.73
2022-09-13T10:24:44.518Z,1.08
2022-09-13T10:26:45.959Z,0.82
2022-09-13T10:29:07.097Z,2.05
2022-09-13T10:31:16.248Z,0.98
2022-09-13T10:33:39.073Z,0.68
2022-09-13T10:35:41.212Z,0.85
2022-09-13T10:37:45.009Z,0.63
2022-09-13T10:40:08.104Z,0.45
2022-09-13T10:42:10.741Z,0.75
2022-09-13T10:44:38.205Z,0.63
2022-09-13T10:46:40.339Z,0.57
2022-09-13T10:48:47.699Z,0.70
2022-09-13T10:51:07.763Z,0.50
2022-09-13T10:53:39.514Z,0.65
2022-09-13T10:55:42.493Z,0.68
2022-09-13T10:57:45.806Z,0.60
2022-09-13T10:59:54.787Z,1.15
2022-09-13T11:02:25.523Z,0.68
2022-09-13T11:04:41.853Z,45.25
2022-09-13T11:07:01.100Z,1.73
2022-09-13T11:09:51.812Z,0.98
2022-09-13T11:12:01.438Z,0.45
2022-09-13T11:14:36.475Z,2.83
2022-09-13T11:17:06.302Z,0.80
2022-09-13T11:19:26.403Z,1.00
2022-09-13T11:21:53.357Z,0.65
2022-09-13T11:24:08.391Z,1.35
2022-09-13T11:26:29.881Z,3.13
2022-09-13T11:29:26.037Z,0.90
2022-09-13T11:31:41.827Z,0.60
2022-09-13T11:34:05.107Z,0.65
2022-09-13T11:36:38.943Z,0.80
2022-09-13T11:38:49.354Z,0.60
2022-09-13T11:41:28.100Z,0.68
2022-09-13T11:43:39.454Z,0.60
2022-09-13T11:46:05.331Z,0.70
2022-09-13T11:48:18.414Z,0.60
2022-09-13T11:50:58.045Z,0.77
2022-09-13T11:53:02.108Z,0.75
2022-09-13T11:55:11.373Z,0.55
2022-09-13T11:57:18.409Z,0.75
2022-09-13T11:59:24.488Z,0.68
2022-09-13T12:01:36.986Z,0.63
2022-09-13T12:03:41.400Z,1.23
2022-09-13T12:05:49.203Z,0.73
2022-09-13T12:08:11.454Z,0.60
2022-09-13T12:10:23.279Z,0.70
2022-09-13T12:12:31.301Z,0.85
2022-09-13T12:14:45.368Z,0.77
2022-09-13T12:16:53.965Z,0.60
2022-09-13T12:19:20.464Z,1.20
2022-09-13T12:21:26.768Z,0.77
2022-09-13T12:23:42.717Z,0.82
2022-09-13T12:25:58.414Z,0.63
2022-09-13T12:28:20.424Z,0.80
2022-09-13T12:30:25.686Z,0.50
2022-09-13T12:32:29.037Z,0.60
2022-09-13T12:34:35.677Z,0.77
2022-09-13T12:36:50.242Z,0.90
2022-09-13T12:39:10.047Z,1.08
2022-09-13T12:41:44.567Z,0.75
2022-09-13T12:44:04.175Z,0.43
2022-09-13T12:46:24.125Z,0.50
2022-09-13T12:48:55.501Z,0.93
2022-09-13T12:51:38.577Z,0.60
2022-09-13T12:54:09.560Z,0.60
2022-09-13T12:56:22.718Z,0.70
2022-09-13T12:59:04.684Z,0.82
2022-09-13T13:01:24.735Z,0.73
2022-09-13T13:03:31.617Z,0.75
2022-09-13T13:05:41.573Z,0.73
2022-09-13T13:07:49.749Z,1.02
2022-09-13T13:09:53.803Z,0.80
2022-09-13T13:11:57.866Z,0.73
2022-09-13T13:14:09.275Z,0.60
2022-09-13T13:16:24.700Z,0.75
2022-09-13T13:18:49.106Z,1.00
2022-09-13T13:20:53.625Z,0.82
2022-09-13T13:23:18.411Z,1.00
2022-09-13T13:25:54.597Z,0.75
2022-09-13T13:27:56.203Z,0.95
2022-09-13T13:30:40.969Z,0.55
2022-09-13T13:33:14.714Z,0.60
2022-09-13T13:35:30.304Z,0.70
2022-09-13T13:37:35.363Z,0.60
2022-09-13T13:39:40.818Z,0.63
2022-09-13T13:41:55.989Z,0.50
2022-09-13T13:43:57.422Z,0.50
2022-09-13T13:46:21.551Z,0.63
2022-09-13T13:48:38.878Z,0.90
2022-09-13T13:51:14.608Z,0.50
2022-09-13T13:53:33.044Z,0.85
2022-09-13T13:58:05.781Z,0.68
2022-09-13T14:00:22.396Z,0.70
2022-09-13T14:02:33.529Z,0.85
2022-09-13T14:04:48.562Z,0.50
2022-09-13T14:07:21.312Z,1.30
2022-09-13T14:09:34.586Z,0.40
2022-09-13T14:11:39.273Z,0.85
2022-09-13T14:13:44.244Z,0.82
2022-09-13T14:15:54.514Z,0.80
2022-09-13T14:18:07.875Z,0.80
2022-09-13T14:20:13.301Z,0.45
2022-09-13T14:22:30.864Z,0.85
2022-09-13T14:24:40.033Z,0.82
2022-09-13T14:26:41.614Z,0.50
2022-09-13T14:28:43.291Z,0.65
2022-09-13T14:30:45.455Z,0.40
2022-09-13T14:32:49.549Z,0.47
2022-09-13T14:34:56.868Z,0.70
2022-09-13T14:37:01.921Z,1.10
2022-09-13T14:39:03.738Z,0.80
2022-09-13T14:41:17.594Z,0.80
2022-09-13T14:43:24.220Z,0.60
2022-09-13T14:45:31.006Z,0.60
2022-09-13T14:47:47.078Z,0.93
2022-09-13T14:49:59.191Z,0.70
2022-09-13T14:52:07.067Z,0.70
2022-09-13T14:54:20.329Z,0.73
2022-09-13T14:56:31.663Z,0.80
2022-09-13T14:58:45.460Z,0.40
2022-09-13T15:01:00.673Z,0.60
2022-09-13T15:03:10.829Z,0.50
2022-09-13T15:05:16.023Z,0.57
2022-09-13T15:07:38.645Z,0.47
2022-09-13T15:09:40.115Z,0.90
2022-09-13T15:11:54.102Z,0.85
2022-09-13T15:14:24.013Z,1.00
2022-09-13T15:16:31.628Z,0.60
2022-09-13T15:18:36.777Z,0.80
2022-09-13T15:20:58.980Z,0.68
2022-09-13T15:23:00.433Z,0.60
2022-09-13T15:25:02.630Z,0.75
2022-09-13T15:27:07.435Z,0.73
2022-09-13T15:29:18.693Z,1.10
2022-09-13T15:31:24.798Z,0.85
2022-09-13T15:33:36.832Z,0.82
2022-09-13T15:35:40.638Z,1.20
2022-09-13T15:37:42.104Z,1.30
2022-09-13T15:39:43.526Z,0.90
2022-09-13T15:42:02.752Z,1.13
2022-09-13T15:44:07.213Z,0.95
2022-09-13T15:46:14.355Z,0.90
2022-09-13T15:48:33.684Z,1.05
2022-09-13T15:50:36.968Z,0.93
2022-09-13T15:52:38.409Z,0.90
2022-09-13T15:54:42.052Z,0.63
2022-09-13T15:56:46.722Z,1.10
2022-09-13T15:58:48.797Z,1.50
2022-09-13T16:00:50.336Z,0.98
2022-09-13T16:02:52.141Z,1.00
2022-09-13T16:04:54.518Z,0.90
2022-09-13T16:06:55.945Z,0.80
2022-09-13T16:08:57.511Z,1.05
2022-09-13T16:10:58.936Z,0.73
2022-09-13T16:13:00.345Z,1.30
2022-09-13T16:15:01.778Z,1.00
2022-09-13T16:17:07.448Z,0.88
2022-09-13T16:19:15.320Z,0.70
2022-09-13T16:21:16.862Z,1.13
2022-09-13T16:23:18.288Z,0.95
2022-09-13T16:25:20.094Z,0.90
2022-09-13T16:27:21.586Z,1.15
2022-09-13T16:29:23.049Z,0.70
2022-09-13T16:31:24.604Z,1.38
2022-09-13T16:33:26.134Z,1.27
2022-09-13T16:35:29.718Z,0.80
2022-09-13T16:37:31.160Z,1.38
2022-09-13T16:39:32.594Z,0.80
2022-09-13T16:41:34.077Z,0.85
2022-09-13T16:43:35.532Z,1.08
2022-09-13T16:45:41.391Z,0.90
2022-09-13T16:47:43.076Z,1.35
2022-09-13T16:49:44.636Z,1.25
2022-09-13T16:51:46.104Z,0.93
2022-09-13T16:53:50.911Z,0.88
2022-09-13T16:55:52.346Z,1.02
2022-09-13T16:57:53.880Z,1.50
2022-09-13T16:59:58.418Z,1.00
2022-09-13T17:02:00.125Z,1.38
2022-09-13T17:04:01.937Z,0.93
2022-09-13T17:06:09.412Z,1.08
2022-09-13T17:08:10.878Z,1.38
2022-09-13T17:10:12.660Z,0.88
2022-09-13T17:12:15.013Z,1.27
2022-09-13T17:14:17.749Z,1.00
2022-09-13T17:16:37.812Z,1.13
2022-09-13T17:18:39.329Z,0.80
2022-09-13T17:20:48.821Z,1.35
2022-09-13T17:22:50.268Z,1.08
2022-09-13T17:24:51.714Z,0.80
2022-09-13T17:26:54.008Z,1.15
2022-09-13T17:28:55.472Z,1.20
2022-09-13T17:30:59.451Z,1.10
2022-09-13T17:33:05.876Z,1.20
2022-09-13T17:35:08.458Z,1.13
2022-09-13T17:37:09.869Z,1.08
2022-09-13T17:39:11.902Z,1.35
2022-09-13T17:41:18.673Z,0.80
2022-09-13T17:43:20.086Z,0.77
2022-09-13T17:45:22.476Z,0.90
2022-09-13T17:47:23.900Z,0.70
2022-09-13T17:49:25.412Z,1.10
2022-09-13T17:51:30.890Z,1.00
2022-09-13T17:53:36.844Z,1.70
2022-09-13T17:55:46.626Z,0.80
2022-09-13T17:57:49.826Z,1.13
2022-09-13T17:59:52.267Z,0.68
2022-09-13T18:01:54.625Z,0.93
2022-09-13T18:03:56.243Z,1.00
2022-09-13T18:05:59.720Z,1.10
2022-09-13T18:08:01.334Z,0.98
2022-09-13T18:10:02.977Z,0.95
2022-09-13T18:12:04.443Z,1.33
2022-09-13T18:14:07.006Z,1.23
2022-09-13T18:16:20.258Z,0.80
2022-09-13T18:18:22.586Z,0.82
2022-09-13T18:20:24.337Z,0.70
2022-09-13T18:22:25.876Z,1.08
2022-09-13T18:24:27.343Z,0.77
2022-09-13T18:26:32.403Z,1.13
2022-09-13T18:28:35.078Z,1.10
2022-09-13T18:30:36.480Z,1.13
2022-09-13T18:32:37.996Z,0.77
2022-09-13T18:34:42.066Z,1.50
2022-09-13T18:36:43.505Z,0.82
2022-09-13T18:38:47.278Z,1.10
2022-09-13T18:41:01.437Z,0.98
2022-09-13T18:43:02.858Z,1.25
2022-09-13T18:45:04.632Z,1.00
2022-09-13T18:47:08.264Z,0.82
2022-09-13T18:49:10.440Z,1.05
2022-09-13T18:51:15.098Z,0.70
2022-09-13T18:53:16.535Z,1.80
2022-09-13T18:55:17.936Z,1.42
2022-09-13T18:57:19.397Z,0.73
2022-09-13T18:59:21.175Z,0.90
2022-09-13T19:01:28.603Z,0.90
2022-09-13T19:03:32.059Z,0.90
2022-09-13T19:05:36.265Z,1.05
2022-09-13T19:07:40.205Z,1.38
2022-09-13T19:09:41.767Z,1.10
2022-09-13T19:11:47.694Z,0.95
2022-09-13T19:13:50.494Z,1.20
2022-09-13T19:15:51.995Z,0.90
2022-09-13T19:17:53.460Z,0.90
2022-09-13T19:19:55.806Z,0.90
2022-09-13T19:21:57.410Z,1.58
2022-09-13T19:24:04.069Z,0.82
2022-09-13T19:26:17.124Z,0.90
2022-09-13T19:28:18.524Z,1.00
2022-09-13T19:30:20.057Z,1.35
2022-09-13T19:32:21.758Z,1.15
2022-09-13T19:34:23.830Z,0.68
2022-09-13T19:36:30.797Z,1.00
2022-09-13T19:38:35.109Z,1.38
2022-09-13T19:40:37.925Z,0.90
2022-09-13T19:42:39.437Z,0.70
2022-09-13T19:44:40.908Z,0.85
2022-09-13T19:46:42.978Z,3.33
2022-09-13T19:48:46.573Z,1.73
2022-09-13T19:50:48.161Z,1.10
2022-09-13T19:52:50.107Z,1.20
2022-09-13T19:54:52.562Z,1.27
2022-09-13T19:56:53.990Z,1.05
2022-09-13T19:58:55.583Z,0.85
2022-09-13T20:01:08.877Z,1.50
2022-09-13T20:03:10.355Z,1.30
2022-09-13T20:05:11.818Z,1.33
2022-09-13T20:07:14.312Z,1.23
2022-09-13T20:09:18.105Z,1.27
2022-09-13T20:11:20.826Z,1.15
2022-09-13T20:13:24.042Z,32.17
2022-09-13T20:15:31.159Z,32.60
2022-09-13T20:17:32.655Z,31.90
2022-09-13T20:19:42.545Z,44.05
2022-09-13T20:21:51.815Z,3.67
2022-09-13T20:24:02.888Z,1.63
2022-09-13T20:26:12.460Z,1.60
2022-09-13T20:28:13.897Z,1.05
2022-09-13T20:30:16.012Z,1.20
2022-09-13T20:32:17.436Z,2.20
2022-09-13T20:34:18.973Z,1.42
2022-09-13T20:36:20.404Z,1.08
2022-09-13T20:38:22.222Z,1.52
2022-09-13T20:40:24.898Z,1.20
2022-09-13T20:42:26.424Z,1.20
2022-09-13T20:44:28.172Z,1.08
2022-09-13T20:46:31.517Z,1.30
2022-09-13T20:48:34.111Z,1.48
2022-09-13T20:50:40.124Z,1.77
2022-09-13T20:52:41.623Z,1.92
2022-09-13T20:54:43.171Z,1.60
2022-09-13T20:56:45.766Z,12.32
2022-09-13T20:58:55.034Z,4.03
2022-09-13T21:01:08.435Z,4.03
2022-09-13T21:03:11.149Z,3.70
2022-09-13T21:05:12.756Z,2.75
2022-09-13T21:07:32.786Z,2.03
2022-09-13T21:09:34.237Z,1.50
2022-09-13T21:11:36.775Z,1.58
2022-09-13T21:13:48.003Z,1.30
2022-09-13T21:15:50.196Z,1.40
2022-09-13T21:17:51.630Z,1.02
2022-09-13T21:19:53.225Z,1.70
2022-09-13T21:21:55.337Z,1.88
2022-09-13T21:23:58.319Z,1.75
2022-09-13T21:26:08.041Z,1.60
2022-09-13T21:28:10.850Z,1.30
2022-09-13T21:30:12.366Z,1.17
2022-09-13T21:32:13.845Z,1.33
2022-09-13T21:34:17.806Z,1.20
2022-09-13T21:36:19.243Z,13.18
2022-09-13T21:38:20.725Z,4.47
2022-09-13T21:40:22.289Z,2.08
2022-09-13T21:42:23.758Z,3.33
2022-09-13T21:44:25.704Z,2.88
2022-09-13T21:46:29.782Z,3.53
2022-09-13T21:48:32.884Z,3.40
2022-09-13T21:50:34.315Z,2.05
2022-09-13T21:52:35.765Z,1.80
2022-09-13T21:54:37.176Z,1.00
2022-09-13T21:56:42.062Z,1.30
2022-09-13T21:58:54.968Z,1.13
2022-09-13T22:01:22.491Z,1.45
2022-09-13T22:03:23.985Z,1.20
2022-09-13T22:05:25.419Z,1.00
2022-09-13T22:07:26.910Z,3.33
2022-09-13T22:09:28.422Z,3.20
2022-09-13T22:11:32.121Z,16.08
2022-09-13T22:13:45.264Z,16.58
2022-09-13T22:15:46.730Z,5.95
2022-09-13T22:17:48.172Z,6.18
2022-09-13T22:19:49.647Z,5.30
2022-09-13T22:21:55.433Z,5.13
2022-09-13T22:23:58.322Z,3.03
2022-09-13T22:25:59.810Z,1.98
2022-09-13T22:28:01.438Z,1.85
2022-09-13T22:30:04.710Z,1.52
2022-09-13T22:32:06.187Z,1.05
2022-09-13T22:34:11.380Z,1.20
2022-09-13T22:36:15.342Z,1.20
2022-09-13T22:38:16.748Z,1.40
2022-09-13T22:40:19.103Z,1.55
2022-09-13T22:42:20.974Z,1.00
2022-09-13T22:44:22.446Z,1.00
2022-09-13T22:46:32.955Z,1.00
2022-09-13T22:48:35.290Z,1.35
2022-09-13T22:50:36.720Z,0.90
2022-09-13T22:52:38.148Z,1.13
2022-09-13T22:54:39.573Z,1.17
2022-09-13T22:56:41.389Z,1.02
2022-09-13T22:58:43.426Z,1.95
2022-09-13T23:00:45.966Z,1.70
2022-09-13T23:02:47.555Z,1.30
2022-09-13T23:04:48.964Z,1.20
2022-09-13T23:06:50.422Z,1.33
2022-09-13T23:08:54.470Z,1.15
2022-09-13T23:10:56.200Z,1.00
2022-09-13T23:13:00.465Z,1.00
2022-09-13T23:15:01.889Z,0.90
2022-09-13T23:17:03.406Z,0.85
2022-09-13T23:19:05.232Z,0.88
2022-09-13T23:21:06.802Z,1.13
2022-09-13T23:23:10.625Z,1.20
2022-09-13T23:25:12.469Z,0.90
2022-09-13T23:27:13.885Z,1.15
2022-09-13T23:29:17.955Z,2.17
2022-09-13T23:31:22.180Z,1.30
2022-09-13T23:33:23.657Z,2.05
2022-09-13T23:35:25.968Z,0.55
2022-09-13T23:37:27.395Z,1.40
2022-09-13T23:39:28.859Z,1.33
2022-09-13T23:41:31.760Z,1.00
2022-09-13T23:43:34.113Z,1.00
2022-09-13T23:45:35.627Z,0.82
2022-09-13T23:47:37.078Z,0.90
2022-09-13T23:49:38.564Z,1.20
2022-09-13T23:51:39.996Z,0.98
2022-09-13T23:53:41.970Z,0.63
2022-09-13T23:55:43.411Z,0.70
2022-09-13T23:57:44.873Z,1.08
2022-09-13T23:59:46.300Z,0.90
